Keokuk, IA

11:49 AM CDT on May 25, 2017 (GMT -0500)
Keokuk Municipal | | Change Station
Active Advisory: Flood Warning

Elev 669 ft 40.46 °N, 91.43 °W | Updated 14 minutes ago

Clear
Clear
64 °F
Feels Like 64 °F
N
6
Wind Variable Wind from WNW

Today
High -- | Low -- °F
--% Chance of Precip.
Yesterday
High -- | Low -- °F
Precip. -- in
Pressure 29.71 in
Visibility 10.0 miles
Clouds Clear
Dew Point 52 °F
Humidity 64%
Rainfall 0.00 in
Snow Depth Not available.
5:41 AM 8:24 PM
Waning Crescent, 0% visible
METAR KEOK 251635Z AUTO 30005KT 10SM CLR 18/11 A2971 RMK AO2
Pressure 29.71 in
Visibility 10.0 miles
Clouds Clear
Dew Point 52 °F
Humidity 64%
Rainfall 0.00 in
Snow Depth Not available.
5:41 AM 8:24 PM
Waning Crescent, 0% visible
METAR KEOK 251635Z AUTO 30005KT 10SM CLR 18/11 A2971 RMK AO2

Get Your Daily Forecast Email!

Thanks for signing up!

Be on the lookout for a verification email in your inbox.

You'll start receiving severe weather alerts in your inbox..

×

10-Day Weather Forecast

Almanac

Astronomy

May. 25, 2017 Rise Set
Actual Time
Civil Twilight
Nautical Twilight
Astronomical Twilight
Moon
Length of Visible Light
Length of Day
Tomorrow will be .
, % of the Moon is Illuminated

Today's Extremes

State Highs State Lows

Community

WunderPhotos

Category 6

Welcome to Category 6. This is the collective home for Weather Underground's featured writeups by Dr. Jeff Masters (right), Bob Henson (left), Chris Burt, and other regular contributors.

Nearby

Air Quality

  Air Quality AQ Index Pollutant
Not available.

Snow Depth

Station Depth Elevation

Earthquake Activity

City Distance Mag. Time & Date
Minimum magnitude displayed is 2.5.

Coastal Water Temperatures

Place Temperature

Stations

Nearby Weather Stations

Station Location Temp. Windchill Dew Point Humidity Wind Precip. Elev Updated Type
                   

Watches & Warnings

Flood Warning
Issued: 11:12 AM CDT May. 25, 2017 – National Weather Service

... Flood Warning remains in effect until further notice...

The Flood Warning continues for
the Mississippi River at Burlington.
* Until further notice.
* At 10:00 am Thursday the stage was 15.2 feet... and rising.
* Flood stage is 15.0 feet.
* Minor flooding is occurring and moderate flooding is forecast.
* Forecast... rise to 17.3 feet by late next week.
* Impact... at 17.0 feet... water affects the port of Burlington
parking lot.


Lat... Lon 4086 9110 4084 9105 4062 9108 4061 9142
     4067 9118


Speck